GMTA/AHU METAR and TAF weather

Enter ICAO airport designator
Station Type Date Time Source
GMTA METAR 2019/08/18 19:00 UTC NOAA

GMTA 181900Z 36004KT CAVOK 28/14 Q1012 NOSIG


Station Type Date Time Source
GMTA Decoded METAR 2019/08/18 19:00 UTC NOAA

Station name not available
Aug 18, 2019 - 03:00 PM EDT / 2019.08.18 1900 UTC
Wind: from the N (360 degrees) at 5 MPH (4 KT):0
Visibility: greater than 7 mile(s):0
Temperature: 82 F (28 C)
Dew Point: 57 F (14 C)
Relative Humidity: 42%
Pressure (altimeter): 29.88 in. Hg (1012 hPa)
ob: GMTA 181900Z 36004KT CAVOK 28/14 Q1012 NOSIG
cycle: 19

Station Type Date Time Source
GMTA TAF 2019/08/18 18:21 UTC NOAA

TAF TAF GMTA 181700Z 1818/1924 02006KT CAVOK

Example: see airport list